Pacific, WA (98047)

12:43 AM PDT on July 06, 2015 (GMT -0700)
Trout Lake | | Change Station
CLOSE
Current Station
Personal Weather Station
Location: Auburn, WA
Elevation: 367 ft
Nearby Weather Stations
Active Advisory: Heat Advisory Active Notice: Record Report

Elev 367 ft 47.26 °N, 122.27 °W | Updated 18 seconds ago

Clear
Clear
68.9 °F
Feels Like 68.9 °F
N
1.1
Wind Variable Wind from SW
Gusts 1.8 mph

Today
High -- | Low -- °F
--% Chance of Precip.
Yesterday
High -- | Low -- °F
Precip. -- in
5:20 AM 9:07 PM
Waning Gibbous, 78% visible
Pressure 29.93 in
Visibility 10.0 miles
Clouds Clear
Dew Point 54 °F
Humidity 58%
Rainfall 0.00 in
Snow Depth Not available.
UV 0 out of 12
Pollen 6.70 out of 12
Air Quality Not available.
Flu Activity Not available.
METAR KPLU 060735Z AUTO 00000KT 10SM CLR 19/13 A2993 RMK AO2

More Conditions Fewer Conditions

Pressure 29.93 in
Visibility 10.0 miles
Clouds Clear
Dew Point 54 °F
Humidity 58%
Rainfall 0.00 in
Snow Depth Not available.
UV 0 out of 12
Pollen 6.70 out of 12
Air Quality Not available.
Flu Activity Not available.
METAR KPLU 060735Z AUTO 00000KT 10SM CLR 19/13 A2993 RMK AO2

More Conditions Fewer Conditions

10-Day Weather Forecast

×

Almanac

Astronomy

Jul. 06, 2015 Rise Set
Actual Time
Civil Twilight
Nautical Twilight
Astronomical Twilight
Moon
Length of Visible Light
Length of Day
Tomorrow will be .
, % of the Moon is Illuminated

Today's Extremes

State Highs State Lows

Community

WunderPhotos

Upload Photos

1,835,507 photos uploaded!

WunderBlogs® & News

Nearby

Air Quality

  Air Quality AQ Index Pollutant
Not available.

Snow Depth

Station Depth Elevation

Earthquake Activity

City Distance Mag. Time & Date
Minimum magnitude displayed is 2.5.

Coastal Water Temperatures

Place Temperature

Stations

Nearby Weather Stations

Station Location Temp. Windchill Dew Point Humidity Wind Precip. Elev Updated Type
                   
Heat Advisory
Statement as of 3:48 PM PDT on July 05, 2015

... Heat advisory remains in effect until 9 PM PDT Monday...

* timing... through Monday evening.

* Locations... the Puget Sound Metro area including Seattle...
Tacoma... Bellevue... and The Lowlands east of Puget Sound.

* Temperatures... highs Monday should be around 90 degrees around
Seattle. Lows tonight will be in the lower to mid 60s.

* Impacts... temperatures this warm can place extra stress on the
body and possibly lead to heat exhaustion. It is easier to
become dehydrated. The interior of automobiles can become very
hot... creating a danger if children or pets are left
unattended.

Precautionary/preparedness actions...

A heat advisory means heat illnesses are possible. Drink plenty
of water. Check up on elderly or infirm relatives and neighbors.